sensor_id;sensor_type;location;lat;lon;timestamp;pressure;altitude;pressure_sealevel;temperature;humidity
51876;BME280;34054;52.100;5.116;2022-10-19T00:00:11;102758.03;;;10.50;85.84
51876;BME280;34054;52.100;5.116;2022-10-19T00:00:44;102759.94;;;10.50;85.86
51876;BME280;34054;52.100;5.116;2022-10-19T00:01:18;102755.13;;;10.52;85.94
51876;BME280;34054;52.100;5.116;2022-10-19T00:01:52;102755.75;;;10.47;85.84
51876;BME280;34054;52.100;5.116;2022-10-19T00:02:24;102755.75;;;10.47;85.77
51876;BME280;34054;52.100;5.116;2022-10-19T00:02:55;102755.31;;;10.50;85.78
51876;BME280;34054;52.100;5.116;2022-10-19T00:03:28;102752.41;;;10.45;85.64
51876;BME280;34054;52.100;5.116;2022-10-19T00:04:00;102762.66;;;10.57;85.57
51876;BME280;34054;52.100;5.116;2022-10-19T00:04:33;102760.75;;;10.57;85.30
51876;BME280;34054;52.100;5.116;2022-10-19T00:05:08;102764.94;;;10.60;85.29
51876;BME280;34054;52.100;5.116;2022-10-19T00:05:39;102763.06;;;10.53;85.43
51876;BME280;34054;52.100;5.116;2022-10-19T00:06:13;102767.03;;;10.51;85.34
51876;BME280;34054;52.100;5.116;2022-10-19T00:06:49;102767.22;;;10.49;85.45
51876;BME280;34054;52.100;5.116;2022-10-19T00:07:21;102758.47;;;10.47;85.34
51876;BME280;34054;52.100;5.116;2022-10-19T00:07:52;102749.50;;;10.40;85.45
51876;BME280;34054;52.100;5.116;2022-10-19T00:08:25;102755.75;;;10.41;85.54
51876;BME280;34054;52.100;5.116;2022-10-19T00:08:59;102762.00;;;10.48;85.39
51876;BME280;34054;52.100;5.116;2022-10-19T00:09:33;102747.38;;;10.35;85.52
51876;BME280;34054;52.100;5.116;2022-10-19T00:10:06;102766.22;;;10.44;85.67
51876;BME280;34054;52.100;5.116;2022-10-19T00:10:39;102768.72;;;10.45;85.87
51876;BME280;34054;52.100;5.116;2022-10-19T00:11:11;102762.63;;;10.43;85.75
51876;BME280;34054;52.100;5.116;2022-10-19T00:11:46;102756.38;;;10.43;85.56
51876;BME280;34054;52.100;5.116;2022-10-19T00:12:20;102748.63;;;10.40;85.64
51876;BME280;34054;52.100;5.116;2022-10-19T00:12:51;102746.97;;;10.39;85.46
51876;BME280;34054;52.100;5.116;2022-10-19T00:13:24;102744.03;;;10.33;85.37
51876;BME280;34054;52.100;5.116;2022-10-19T00:13:56;102763.25;;;10.39;85.40
51876;BME280;34054;52.100;5.116;2022-10-19T00:14:29;102740.03;;;10.29;85.69
51876;BME280;34054;52.100;5.116;2022-10-19T00:15:03;102759.28;;;10.48;85.35
51876;BME280;34054;52.100;5.116;2022-10-19T00:15:38;102753.47;;;10.51;85.19
51876;BME280;34054;52.100;5.116;2022-10-19T00:16:12;102755.31;;;10.57;84.79
51876;BME280;34054;52.100;5.116;2022-10-19T00:16:47;102760.13;;;10.62;84.57
51876;BME280;34054;52.100;5.116;2022-10-19T00:17:20;102760.75;;;10.57;84.45
51876;BME280;34054;52.100;5.116;2022-10-19T00:17:52;102745.72;;;10.55;84.16
51876;BME280;34054;52.100;5.116;2022-10-19T00:18:25;102748.44;;;10.55;84.14
51876;BME280;34054;52.100;5.116;2022-10-19T00:18:57;102754.28;;;10.51;84.12
51876;BME280;34054;52.100;5.116;2022-10-19T00:19:30;102757.44;;;10.48;84.26
51876;BME280;34054;52.100;5.116;2022-10-19T00:20:03;102749.69;;;10.45;84.29
51876;BME280;34054;52.100;5.116;2022-10-19T00:20:36;102750.31;;;10.41;84.66
51876;BME280;34054;52.100;5.116;2022-10-19T00:21:09;102735.25;;;10.31;84.73
51876;BME280;34054;52.100;5.116;2022-10-19T00:21:42;102739.63;;;10.32;84.83
51876;BME280;34054;52.100;5.116;2022-10-19T00:22:18;102760.34;;;10.47;84.75
51876;BME280;34054;52.100;5.116;2022-10-19T00:22:49;102758.47;;;10.41;84.80
51876;BME280;34054;52.100;5.116;2022-10-19T00:23:21;102719.38;;;10.21;84.88
51876;BME280;34054;52.100;5.116;2022-10-19T00:23:53;102747.56;;;10.34;85.14
51876;BME280;34054;52.100;5.116;2022-10-19T00:24:26;102740.03;;;10.36;84.84
51876;BME280;34054;52.100;5.116;2022-10-19T00:24:57;102755.53;;;10.35;85.02
51876;BME280;34054;52.100;5.116;2022-10-19T00:25:29;102751.72;;;10.36;85.01
51876;BME280;34054;52.100;5.116;2022-10-19T00:26:02;102753.84;;;10.41;85.02
51876;BME280;34054;52.100;5.116;2022-10-19T00:26:33;102755.34;;;10.44;84.91
51876;BME280;34054;52.100;5.116;2022-10-19T00:27:05;102726.66;;;10.28;85.03
51876;BME280;34054;52.100;5.116;2022-10-19T00:27:38;102735.22;;;10.25;84.90
51876;BME280;34054;52.100;5.116;2022-10-19T00:28:10;102746.50;;;10.35;85.01
51876;BME280;34054;52.100;5.116;2022-10-19T00:28:41;102748.00;;;10.44;84.97
51876;BME280;34054;52.100;5.116;2022-10-19T00:29:15;102745.31;;;10.44;84.71
51876;BME280;34054;52.100;5.116;2022-10-19T00:29:47;102752.81;;;10.49;84.49
51876;BME280;34054;52.100;5.116;2022-10-19T00:30:18;102747.19;;;10.44;84.47
51876;BME280;34054;52.100;5.116;2022-10-19T00:30:51;102753.22;;;10.46;84.49
51876;BME280;34054;52.100;5.116;2022-10-19T00:31:23;102754.09;;;10.46;84.36
51876;BME280;34054;52.100;5.116;2022-10-19T00:31:55;102744.06;;;10.40;84.39
51876;BME280;34054;52.100;5.116;2022-10-19T00:32:28;102752.00;;;10.48;84.16
51876;BME280;34054;52.100;5.116;2022-10-19T00:33:00;102751.16;;;10.48;84.09
51876;BME280;34054;52.100;5.116;2022-10-19T00:33:32;102753.03;;;10.47;83.95
51876;BME280;34054;52.100;5.116;2022-10-19T00:34:04;102741.94;;;10.42;83.89
51876;BME280;34054;52.100;5.116;2022-10-19T00:34:36;102718.13;;;10.31;83.68
51876;BME280;34054;52.100;5.116;2022-10-19T00:35:08;102753.66;;;10.49;83.39
51876;BME280;34054;52.100;5.116;2022-10-19T00:35:41;102757.19;;;10.43;83.62
51876;BME280;34054;52.100;5.116;2022-10-19T00:36:15;102728.97;;;10.24;83.62
51876;BME280;34054;52.100;5.116;2022-10-19T00:36:51;102751.75;;;10.30;83.63
51876;BME280;34054;52.100;5.116;2022-10-19T00:37:22;102749.44;;;10.27;83.82
51876;BME280;34054;52.100;5.116;2022-10-19T00:37:55;102750.72;;;10.31;83.84
51876;BME280;34054;52.100;5.116;2022-10-19T00:38:26;102754.47;;;10.30;83.91
51876;BME280;34054;52.100;5.116;2022-10-19T00:38:59;102757.81;;;10.32;84.03
51876;BME280;34054;52.100;5.116;2022-10-19T00:39:32;102757.59;;;10.33;84.05
51876;BME280;34054;52.100;5.116;2022-10-19T00:40:05;102753.44;;;10.31;84.13
51876;BME280;34054;52.100;5.116;2022-10-19T00:40:38;102751.13;;;10.28;84.16
51876;BME280;34054;52.100;5.116;2022-10-19T00:41:11;102708.69;;;10.00;84.46
51876;BME280;34054;52.100;5.116;2022-10-19T00:41:44;102746.94;;;10.18;84.60
51876;BME280;34054;52.100;5.116;2022-10-19T00:42:16;102754.66;;;10.15;84.83
51876;BME280;34054;52.100;5.116;2022-10-19T00:42:53;102743.38;;;10.18;84.87
51876;BME280;34054;52.100;5.116;2022-10-19T00:43:29;102749.03;;;10.23;84.78
51876;BME280;34054;52.100;5.116;2022-10-19T00:44:04;102745.88;;;10.19;84.96
51876;BME280;34054;52.100;5.116;2022-10-19T00:45:00;102746.50;;;10.15;84.97
51876;BME280;34054;52.100;5.116;2022-10-19T00:45:35;102747.13;;;10.10;84.98
51876;BME280;34054;52.100;5.116;2022-10-19T00:46:12;102746.91;;;10.12;85.10
51876;BME280;34054;52.100;5.116;2022-10-19T00:46:46;102735.22;;;10.04;85.22
51876;BME280;34054;52.100;5.116;2022-10-19T00:47:22;102743.16;;;10.06;85.28
51876;BME280;34054;52.100;5.116;2022-10-19T00:47:55;102741.47;;;10.12;85.19
51876;BME280;34054;52.100;5.116;2022-10-19T00:48:30;102744.63;;;10.22;85.00
51876;BME280;34054;52.100;5.116;2022-10-19T00:49:05;102736.91;;;10.26;84.67
51876;BME280;34054;52.100;5.116;2022-10-19T00:49:41;102746.72;;;10.27;84.57
51876;BME280;34054;52.100;5.116;2022-10-19T00:50:16;102733.75;;;10.22;84.54
51876;BME280;34054;52.100;5.116;2022-10-19T00:50:51;102745.28;;;10.31;84.38
51876;BME280;34054;52.100;5.116;2022-10-19T00:51:26;102745.47;;;10.23;84.30
51876;BME280;34054;52.100;5.116;2022-10-19T00:52:02;102737.53;;;10.14;84.49
51876;BME280;34054;52.100;5.116;2022-10-19T00:52:38;102748.59;;;10.19;84.29
51876;BME280;34054;52.100;5.116;2022-10-19T00:53:10;102746.50;;;10.15;84.25
51876;BME280;34054;52.100;5.116;2022-10-19T00:53:43;102722.06;;;10.01;84.50
51876;BME280;34054;52.100;5.116;2022-10-19T00:54:15;102742.75;;;10.16;84.50
51876;BME280;34054;52.100;5.116;2022-10-19T00:54:53;102746.50;;;10.15;84.56
51876;BME280;34054;52.100;5.116;2022-10-19T00:55:27;102746.31;;;10.10;84.81
51876;BME280;34054;52.100;5.116;2022-10-19T00:56:03;102740.44;;;10.13;84.73
51876;BME280;34054;52.100;5.116;2022-10-19T00:56:42;102741.50;;;10.18;84.68
51876;BME280;34054;52.100;5.116;2022-10-19T00:57:17;102748.19;;;10.23;84.36
51876;BME280;34054;52.100;5.116;2022-10-19T00:57:49;102739.81;;;10.17;84.52
51876;BME280;34054;52.100;5.116;2022-10-19T00:58:22;102734.59;;;10.09;84.59
51876;BME280;34054;52.100;5.116;2022-10-19T00:58:55;102737.31;;;10.09;84.81
51876;BME280;34054;52.100;5.116;2022-10-19T00:59:27;102742.72;;;10.09;85.06
51876;BME280;34054;52.100;5.116;2022-10-19T01:00:04;102743.34;;;10.04;85.20
51876;BME280;34054;52.100;5.116;2022-10-19T01:00:38;102751.72;;;10.03;85.36
51876;BME280;34054;52.100;5.116;2022-10-19T01:01:15;102744.22;;;10.05;85.45
51876;BME280;34054;52.100;5.116;2022-10-19T01:01:51;102747.34;;;10.09;85.22
51876;BME280;34054;52.100;5.116;2022-10-19T01:02:24;102736.06;;;10.05;85.36
51876;BME280;34054;52.100;5.116;2022-10-19T01:02:56;102745.44;;;10.02;85.40
51876;BME280;34054;52.100;5.116;2022-10-19T01:03:30;102751.72;;;10.10;85.52
51876;BME280;34054;52.100;5.116;2022-10-19T01:04:03;102751.72;;;10.10;85.26
51876;BME280;34054;52.100;5.116;2022-10-19T01:04:37;102749.84;;;10.10;85.21
51876;BME280;34054;52.100;5.116;2022-10-19T01:05:15;102724.56;;;10.03;85.04
51876;BME280;34054;52.100;5.116;2022-10-19T01:05:51;102752.13;;;10.06;85.26
51876;BME280;34054;52.100;5.116;2022-10-19T01:06:24;102738.97;;;10.03;85.14
51876;BME280;34054;52.100;5.116;2022-10-19T01:06:57;102742.31;;;10.05;85.26
51876;BME280;34054;52.100;5.116;2022-10-19T01:07:31;102748.59;;;10.13;85.11
51876;BME280;34054;52.100;5.116;2022-10-19T01:08:04;102746.50;;;10.08;85.14
51876;BME280;34054;52.100;5.116;2022-10-19T01:08:37;102746.91;;;10.05;85.03
51876;BME280;34054;52.100;5.116;2022-10-19T01:09:09;102743.34;;;10.04;85.04
51876;BME280;34054;52.100;5.116;2022-10-19T01:09:41;102739.59;;;10.05;84.96
51876;BME280;34054;52.100;5.116;2022-10-19T01:10:13;102749.63;;;10.05;84.96
51876;BME280;34054;52.100;5.116;2022-10-19T01:10:55;102731.88;;;9.96;84.82
51876;BME280;34054;52.100;5.116;2022-10-19T01:11:41;102737.91;;;9.91;85.07
51876;BME280;34054;52.100;5.116;2022-10-19T01:12:45;102741.06;;;9.95;85.09
51876;BME280;34054;52.100;5.116;2022-10-19T01:13:37;102736.03;;;9.92;85.13
51876;BME280;34054;52.100;5.116;2022-10-19T01:14:27;102744.81;;;10.00;84.99
51876;BME280;34054;52.100;5.116;2022-10-19T01:15:18;102715.34;;;9.84;84.96
51876;BME280;34054;52.100;5.116;2022-10-19T01:16:05;102732.88;;;9.88;84.89
51876;BME280;34054;52.100;5.116;2022-10-19T01:16:49;102714.06;;;9.73;85.23
51876;BME280;34054;52.100;5.116;2022-10-19T01:17:35;102725.19;;;9.85;85.32
51876;BME280;34054;52.100;5.116;2022-10-19T01:18:21;102732.69;;;9.83;85.46
51876;BME280;34054;52.100;5.116;2022-10-19T01:19:15;102728.06;;;9.83;85.19
51876;BME280;34054;52.100;5.116;2022-10-19T01:20:35;102729.72;;;9.78;85.45
51876;BME280;34054;52.100;5.116;2022-10-19T01:21:27;102726.41;;;9.76;85.60
51876;BME280;34054;52.100;5.116;2022-10-19T01:22:12;102734.34;;;9.77;85.48
51876;BME280;34054;52.100;5.116;2022-10-19T01:23:06;102729.13;;;9.76;85.48
51876;BME280;34054;52.100;5.116;2022-10-19T01:25:23;102739.34;;;9.73;85.57
51876;BME280;34054;52.100;5.116;2022-10-19T01:26:23;102733.06;;;9.66;85.44
51876;BME280;34054;52.100;5.116;2022-10-19T01:28:31;102722.63;;;9.70;85.62
51876;BME280;34054;52.100;5.116;2022-10-19T01:29:17;102730.56;;;9.71;85.46
51876;BME280;34054;52.100;5.116;2022-10-19T01:30:11;102709.66;;;9.58;85.46
51876;BME280;34054;52.100;5.116;2022-10-19T01:30:52;102737.88;;;9.78;85.37
51876;BME280;34054;52.100;5.116;2022-10-19T01:31:36;102729.31;;;9.74;85.15
51876;BME280;34054;52.100;5.116;2022-10-19T01:32:21;102738.91;;;9.70;85.27
51876;BME280;34054;52.100;5.116;2022-10-19T01:33:05;102729.09;;;9.69;85.39
51876;BME280;34054;52.100;5.116;2022-10-19T01:33:54;102728.25;;;9.68;85.31
51876;BME280;34054;52.100;5.116;2022-10-19T01:34:41;102734.53;;;9.76;85.26
51876;BME280;34054;52.100;5.116;2022-10-19T01:35:26;102724.94;;;9.80;85.07
51876;BME280;34054;52.100;5.116;2022-10-19T01:36:11;102732.25;;;9.79;85.00
51876;BME280;34054;52.100;5.116;2022-10-19T01:36:58;102736.00;;;9.78;84.86
51876;BME280;34054;52.100;5.116;2022-10-19T01:37:37;102731.41;;;9.72;84.83
51876;BME280;34054;52.100;5.116;2022-10-19T01:38:23;102723.25;;;9.65;84.74
51876;BME280;34054;52.100;5.116;2022-10-19T01:39:04;102719.06;;;9.63;84.78
51876;BME280;34054;52.100;5.116;2022-10-19T01:39:51;102709.00;;;9.56;84.93
51876;BME280;34054;52.100;5.116;2022-10-19T01:40:30;102713.41;;;9.57;85.01
51876;BME280;34054;52.100;5.116;2022-10-19T01:41:15;102732.22;;;9.72;84.79
51876;BME280;34054;52.100;5.116;2022-10-19T01:41:56;102732.63;;;9.69;84.87
51876;BME280;34054;52.100;5.116;2022-10-19T01:42:42;102665.56;;;9.30;84.84
51876;BME280;34054;52.100;5.116;2022-10-19T01:43:21;102732.19;;;9.66;84.83
51876;BME280;34054;52.100;5.116;2022-10-19T01:44:09;102723.28;;;9.72;84.87
51876;BME280;34054;52.100;5.116;2022-10-19T01:44:49;102723.47;;;9.77;84.52
51876;BME280;34054;52.100;5.116;2022-10-19T01:45:28;102709.47;;;9.67;84.38
51876;BME280;34054;52.100;5.116;2022-10-19T01:46:10;102729.72;;;9.78;84.37
51876;BME280;34054;52.100;5.116;2022-10-19T01:46:48;102680.00;;;9.50;84.26
51876;BME280;34054;52.100;5.116;2022-10-19T01:47:26;102723.69;;;9.76;84.16
51876;BME280;34054;52.100;5.116;2022-10-19T01:48:08;102712.59;;;9.64;84.32
51876;BME280;34054;52.100;5.116;2022-10-19T01:48:50;102723.28;;;9.72;84.28
51876;BME280;34054;52.100;5.116;2022-10-19T01:49:30;102708.03;;;9.71;84.24
51876;BME280;34054;52.100;5.116;2022-10-19T01:50:10;102720.09;;;9.68;84.56
51876;BME280;34054;52.100;5.116;2022-10-19T01:50:49;102717.16;;;9.63;84.58
51876;BME280;34054;52.100;5.116;2022-10-19T01:51:29;102713.63;;;9.63;84.81
51876;BME280;34054;52.100;5.116;2022-10-19T01:52:07;102720.09;;;9.62;84.87
51876;BME280;34054;52.100;5.116;2022-10-19T01:52:43;102716.09;;;9.57;84.90
51876;BME280;34054;52.100;5.116;2022-10-19T01:53:16;102693.75;;;9.42;85.00
51876;BME280;34054;52.100;5.116;2022-10-19T01:53:53;102710.91;;;9.56;85.01
51876;BME280;34054;52.100;5.116;2022-10-19T01:54:34;102710.50;;;9.59;84.99
51876;BME280;34054;52.100;5.116;2022-10-19T01:55:12;102724.25;;;9.57;84.97
51876;BME280;34054;52.100;5.116;2022-10-19T01:55:48;102717.56;;;9.53;85.09
51876;BME280;34054;52.100;5.116;2022-10-19T01:56:26;102716.53;;;9.54;85.09
51876;BME280;34054;52.100;5.116;2022-10-19T01:57:04;102720.28;;;9.53;85.08
51876;BME280;34054;52.100;5.116;2022-10-19T01:57:41;102720.91;;;9.55;85.07
51876;BME280;34054;52.100;5.116;2022-10-19T01:58:21;102714.00;;;9.46;85.00
51876;BME280;34054;52.100;5.116;2022-10-19T01:59:01;102715.22;;;9.43;85.18
51876;BME280;34054;52.100;5.116;2022-10-19T01:59:38;102727.53;;;9.39;85.35
51876;BME280;34054;52.100;5.116;2022-10-19T02:00:12;102721.28;;;9.46;85.36
51876;BME280;34054;52.100;5.116;2022-10-19T02:00:49;102709.81;;;9.37;85.25
51876;BME280;34054;52.100;5.116;2022-10-19T02:01:26;102722.97;;;9.47;85.12
51876;BME280;34054;52.100;5.116;2022-10-19T02:02:06;102719.84;;;9.56;85.11
51876;BME280;34054;52.100;5.116;2022-10-19T02:02:42;102722.56;;;9.50;84.87
51876;BME280;34054;52.100;5.116;2022-10-19T02:03:16;102728.44;;;9.53;85.01
51876;BME280;34054;52.100;5.116;2022-10-19T02:03:51;102695.81;;;9.40;84.79
51876;BME280;34054;52.100;5.116;2022-10-19T02:04:24;102720.91;;;9.55;84.71
51876;BME280;34054;52.100;5.116;2022-10-19T02:04:56;102725.03;;;9.45;84.74
51876;BME280;34054;52.100;5.116;2022-10-19T02:05:31;102723.78;;;9.47;84.78
51876;BME280;34054;52.100;5.116;2022-10-19T02:06:06;102727.13;;;9.49;84.99
51876;BME280;34054;52.100;5.116;2022-10-19T02:06:40;102717.31;;;9.48;84.93
51876;BME280;34054;52.100;5.116;2022-10-19T02:07:14;102727.19;;;9.56;84.83
51876;BME280;34054;52.100;5.116;2022-10-19T02:07:48;102710.88;;;9.49;84.83
51876;BME280;34054;52.100;5.116;2022-10-19T02:08:36;102723.59;;;9.49;84.93
51876;BME280;34054;52.100;5.116;2022-10-19T02:09:15;102708.16;;;9.42;84.87
51876;BME280;34054;52.100;5.116;2022-10-19T02:09:48;102706.06;;;9.45;84.74
51876;BME280;34054;52.100;5.116;2022-10-19T02:10:20;102724.03;;;9.52;84.70
51876;BME280;34054;52.100;5.116;2022-10-19T02:10:56;102721.06;;;9.47;84.77
51876;BME280;34054;52.100;5.116;2022-10-19T02:11:30;102719.84;;;9.50;84.66
51876;BME280;34054;52.100;5.116;2022-10-19T02:12:07;102723.41;;;9.50;84.62
51876;BME280;34054;52.100;5.116;2022-10-19T02:12:41;102719.66;;;9.51;84.64
51876;BME280;34054;52.100;5.116;2022-10-19T02:13:15;102714.44;;;9.56;84.63
51876;BME280;34054;52.100;5.116;2022-10-19T02:13:53;102715.50;;;9.62;84.33
51876;BME280;34054;52.100;5.116;2022-10-19T02:14:31;102725.75;;;9.67;84.01
51876;BME280;34054;52.100;5.116;2022-10-19T02:15:10;102723.84;;;9.61;84.00
51876;BME280;34054;52.100;5.116;2022-10-19T02:15:46;102718.63;;;9.59;84.03
51876;BME280;34054;52.100;5.116;2022-10-19T02:16:26;102719.25;;;9.54;83.84
51876;BME280;34054;52.100;5.116;2022-10-19T02:17:05;102716.75;;;9.59;83.91
51876;BME280;34054;52.100;5.116;2022-10-19T02:17:43;102711.75;;;9.63;83.75
51876;BME280;34054;52.100;5.116;2022-10-19T02:18:22;102713.22;;;9.66;83.56
51876;BME280;34054;52.100;5.116;2022-10-19T02:18:58;102697.94;;;9.51;83.56
51876;BME280;34054;52.100;5.116;2022-10-19T02:19:33;102717.81;;;9.65;83.50
51876;BME280;34054;52.100;5.116;2022-10-19T02:20:05;102727.41;;;9.68;83.29
51876;BME280;34054;52.100;5.116;2022-10-19T02:20:37;102717.81;;;9.65;83.15
51876;BME280;34054;52.100;5.116;2022-10-19T02:21:10;102713.59;;;9.56;82.85
51876;BME280;34054;52.100;5.116;2022-10-19T02:21:42;102715.69;;;9.54;83.20
51876;BME280;34054;52.100;5.116;2022-10-19T02:22:13;102714.22;;;9.51;83.34
51876;BME280;34054;52.100;5.116;2022-10-19T02:22:46;102718.81;;;9.51;83.49
51876;BME280;34054;52.100;5.116;2022-10-19T02:23:19;102712.53;;;9.50;83.59
51876;BME280;34054;52.100;5.116;2022-10-19T02:23:55;102708.41;;;9.54;83.65
51876;BME280;34054;52.100;5.116;2022-10-19T02:24:27;102711.28;;;9.53;83.51
51876;BME280;34054;52.100;5.116;2022-10-19T02:24:59;102706.69;;;9.47;83.74
51876;BME280;34054;52.100;5.116;2022-10-19T02:25:33;102686.81;;;9.33;83.65
51876;BME280;34054;52.100;5.116;2022-10-19T02:26:07;102708.59;;;9.46;83.85
51876;BME280;34054;52.100;5.116;2022-10-19T02:26:39;102705.44;;;9.42;83.96
51876;BME280;34054;52.100;5.116;2022-10-19T02:27:11;102700.63;;;9.38;84.18
51876;BME280;34054;52.100;5.116;2022-10-19T02:27:45;102703.69;;;9.28;84.29
51876;BME280;34054;52.100;5.116;2022-10-19T02:28:16;102700.59;;;9.31;84.37
51876;BME280;34054;52.100;5.116;2022-10-19T02:28:48;102702.69;;;9.36;84.57
51876;BME280;34054;52.100;5.116;2022-10-19T02:29:21;102712.28;;;9.38;84.50
51876;BME280;34054;52.100;5.116;2022-10-19T02:29:53;102707.47;;;9.34;84.43
51876;BME280;34054;52.100;5.116;2022-10-19T02:30:25;102712.47;;;9.30;84.58
51876;BME280;34054;52.100;5.116;2022-10-19T02:31:00;102712.09;;;9.33;84.79
51876;BME280;34054;52.100;5.116;2022-10-19T02:31:32;102704.78;;;9.34;84.70
51876;BME280;34054;52.100;5.116;2022-10-19T02:32:06;102708.34;;;9.41;84.55
51876;BME280;34054;52.100;5.116;2022-10-19T02:32:38;102702.28;;;9.39;84.08
51876;BME280;34054;52.100;5.116;2022-10-19T02:33:10;102712.13;;;9.47;84.24
51876;BME280;34054;52.100;5.116;2022-10-19T02:33:43;102692.50;;;9.45;84.05
51876;BME280;34054;52.100;5.116;2022-10-19T02:34:15;102686.59;;;9.34;83.83
51876;BME280;34054;52.100;5.116;2022-10-19T02:34:46;102709.41;;;9.47;83.99
51876;BME280;34054;52.100;5.116;2022-10-19T02:35:19;102706.91;;;9.45;84.06
51876;BME280;34054;52.100;5.116;2022-10-19T02:35:52;102712.13;;;9.47;84.18
51876;BME280;34054;52.100;5.116;2022-10-19T02:36:24;102710.44;;;9.46;84.11
51876;BME280;34054;52.100;5.116;2022-10-19T02:36:57;102694.56;;;9.36;84.18
51876;BME280;34054;52.100;5.116;2022-10-19T02:37:29;102693.72;;;9.35;84.31
51876;BME280;34054;52.100;5.116;2022-10-19T02:38:02;102699.38;;;9.40;84.38
51876;BME280;34054;52.100;5.116;2022-10-19T02:38:37;102706.66;;;9.40;84.41
51876;BME280;34054;52.100;5.116;2022-10-19T02:39:08;102694.97;;;9.33;84.39
51876;BME280;34054;52.100;5.116;2022-10-19T02:39:41;102702.69;;;9.36;84.42
51876;BME280;34054;52.100;5.116;2022-10-19T02:40:13;102710.59;;;9.31;84.46
51876;BME280;34054;52.100;5.116;2022-10-19T02:40:52;102701.03;;;9.35;84.46
51876;BME280;34054;52.100;5.116;2022-10-19T02:41:33;102694.09;;;9.25;84.51
51876;BME280;34054;52.100;5.116;2022-10-19T02:42:10;102672.97;;;9.14;84.84
51876;BME280;34054;52.100;5.116;2022-10-19T02:42:49;102698.69;;;9.32;84.53
51876;BME280;34054;52.100;5.116;2022-10-19T02:43:31;102677.19;;;9.17;84.77
51876;BME280;34054;52.100;5.116;2022-10-19T02:44:14;102689.72;;;9.24;84.62
51876;BME280;34054;52.100;5.116;2022-10-19T02:44:55;102697.03;;;9.31;84.65
51876;BME280;34054;52.100;5.116;2022-10-19T02:45:31;102681.53;;;9.18;84.68
51876;BME280;34054;52.100;5.116;2022-10-19T02:46:14;102694.09;;;9.25;84.86
51876;BME280;34054;52.100;5.116;2022-10-19T02:46:54;102699.09;;;9.22;84.88
51876;BME280;34054;52.100;5.116;2022-10-19T02:47:34;102698.88;;;9.23;85.08
51876;BME280;34054;52.100;5.116;2022-10-19T02:48:12;102693.66;;;9.22;84.97
51876;BME280;34054;52.100;5.116;2022-10-19T02:48:50;102705.75;;;9.19;85.02
51876;BME280;34054;52.100;5.116;2022-10-19T02:49:22;102695.75;;;9.20;85.16
51876;BME280;34054;52.100;5.116;2022-10-19T02:49:56;102689.06;;;9.16;85.19
51876;BME280;34054;52.100;5.116;2022-10-19T02:50:28;102693.66;;;9.22;85.05
51876;BME280;34054;52.100;5.116;2022-10-19T02:50:59;102680.50;;;9.12;85.06
51876;BME280;34054;52.100;5.116;2022-10-19T02:51:32;102698.88;;;9.17;85.10
51876;BME280;34054;52.100;5.116;2022-10-19T02:52:08;102696.59;;;9.20;85.00
51876;BME280;34054;52.100;5.116;2022-10-19T02:52:41;102699.66;;;9.10;85.23
51876;BME280;34054;52.100;5.116;2022-10-19T02:53:12;102703.66;;;9.15;85.21
51876;BME280;34054;52.100;5.116;2022-10-19T02:53:45;102685.66;;;9.07;85.29
51876;BME280;34054;52.100;5.116;2022-10-19T02:54:17;102692.81;;;9.15;85.34
51876;BME280;34054;52.100;5.116;2022-10-19T02:54:49;102681.09;;;9.07;85.43
51876;BME280;34054;52.100;5.116;2022-10-19T02:55:21;102688.03;;;9.17;85.18
51876;BME280;34054;52.100;5.116;2022-10-19T02:55:53;102696.78;;;9.19;85.33
51876;BME280;34054;52.100;5.116;2022-10-19T02:56:24;102686.13;;;9.17;85.25
51876;BME280;34054;52.100;5.116;2022-10-19T02:56:56;102686.53;;;9.14;85.30
51876;BME280;34054;52.100;5.116;2022-10-19T02:57:29;102692.81;;;9.21;85.42
51876;BME280;34054;52.100;5.116;2022-10-19T02:58:02;102666.69;;;9.07;85.37
51876;BME280;34054;52.100;5.116;2022-10-19T02:58:34;102679.44;;;9.13;85.48
51876;BME280;34054;52.100;5.116;2022-10-19T02:59:06;102684.25;;;9.18;85.52
51876;BME280;34054;52.100;5.116;2022-10-19T02:59:38;102691.13;;;9.14;85.61
51876;BME280;34054;52.100;5.116;2022-10-19T03:00:10;102693.63;;;9.15;85.60
51876;BME280;34054;52.100;5.116;2022-10-19T03:00:42;102686.75;;;9.13;85.75
51876;BME280;34054;52.100;5.116;2022-10-19T03:01:16;102686.75;;;9.13;85.70
51876;BME280;34054;52.100;5.116;2022-10-19T03:01:48;102688.41;;;9.14;85.76
51876;BME280;34054;52.100;5.116;2022-10-19T03:02:20;102693.19;;;9.11;85.78
51876;BME280;34054;52.100;5.116;2022-10-19T03:02:52;102687.56;;;9.13;85.82
51876;BME280;34054;52.100;5.116;2022-10-19T03:03:24;102689.25;;;9.14;85.73
51876;BME280;34054;52.100;5.116;2022-10-19T03:03:55;102686.34;;;9.16;85.82
51876;BME280;34054;52.100;5.116;2022-10-19T03:04:28;102666.47;;;9.02;85.77
51876;BME280;34054;52.100;5.116;2022-10-19T03:04:59;102663.78;;;9.02;85.65
51876;BME280;34054;52.100;5.116;2022-10-19T03:05:31;102685.09;;;9.18;85.67
51876;BME280;34054;52.100;5.116;2022-10-19T03:06:04;102691.56;;;9.17;85.76
51876;BME280;34054;52.100;5.116;2022-10-19T03:06:35;102691.56;;;9.17;85.72
51876;BME280;34054;52.100;5.116;2022-10-19T03:07:07;102687.56;;;9.13;85.78
51876;BME280;34054;52.100;5.116;2022-10-19T03:07:40;102685.94;;;9.12;85.80
51876;BME280;34054;52.100;5.116;2022-10-19T03:08:12;102661.22;;;8.93;85.70
51876;BME280;34054;52.100;5.116;2022-10-19T03:08:45;102697.81;;;9.11;85.98
51876;BME280;34054;52.100;5.116;2022-10-19T03:09:17;102694.06;;;9.12;85.87
51876;BME280;34054;52.100;5.116;2022-10-19T03:09:49;102699.47;;;9.12;85.91
51876;BME280;34054;52.100;5.116;2022-10-19T03:10:22;102695.94;;;9.18;86.04
51876;BME280;34054;52.100;5.116;2022-10-19T03:10:53;102693.44;;;9.17;85.79
51876;BME280;34054;52.100;5.116;2022-10-19T03:11:28;102702.19;;;9.12;85.67
51876;BME280;34054;52.100;5.116;2022-10-19T03:12:01;102694.50;;;9.16;85.72